createdAt,value
2022-11-27T00:01:33.643Z,136.38
2022-11-27T00:04:00.917Z,146.52
2022-11-27T00:06:29.575Z,137.68
2022-11-27T00:09:08.937Z,151.98
2022-11-27T00:11:36.097Z,163.90
2022-11-27T00:14:03.480Z,174.52
2022-11-27T00:16:30.982Z,163.55
2022-11-27T00:18:59.336Z,160.48
2022-11-27T00:21:31.845Z,193.13
2022-11-27T00:24:01.678Z,162.27
2022-11-27T00:26:35.903Z,168.68
2022-11-27T00:29:05.296Z,153.57
2022-11-27T00:31:34.074Z,139.50
2022-11-27T00:34:03.815Z,127.90
2022-11-27T00:36:34.541Z,122.28
2022-11-27T00:39:02.143Z,135.23
2022-11-27T00:41:30.765Z,122.60
2022-11-27T00:44:00.081Z,136.95
2022-11-27T00:46:30.990Z,139.23
2022-11-27T00:49:00.685Z,137.55
2022-11-27T00:51:29.149Z,140.45
2022-11-27T00:53:58.819Z,160.13
2022-11-27T00:56:31.879Z,160.25
2022-11-27T00:59:01.665Z,155.98
2022-11-27T01:01:34.650Z,145.95
2022-11-27T01:04:05.533Z,150.88
2022-11-27T01:06:32.813Z,152.45
2022-11-27T01:09:00.676Z,145.90
2022-11-27T01:11:31.006Z,147.50
2022-11-27T01:14:01.173Z,133.60
2022-11-27T01:16:31.162Z,153.05
2022-11-27T01:19:02.049Z,140.50
2022-11-27T01:21:32.583Z,151.50
2022-11-27T01:24:00.710Z,140.52
2022-11-27T01:26:28.294Z,123.30
2022-11-27T01:28:57.505Z,128.15
2022-11-27T01:31:30.279Z,110.00
2022-11-27T01:34:06.662Z,129.05
2022-11-27T01:36:35.179Z,117.68
2022-11-27T01:39:02.703Z,120.05
2022-11-27T01:41:40.130Z,119.50
2022-11-27T01:44:25.572Z,115.00
2022-11-27T01:46:58.531Z,121.80
2022-11-27T01:49:33.592Z,109.43
2022-11-27T01:52:07.446Z,119.03
2022-11-27T01:55:20.516Z,128.82
2022-11-27T01:57:57.263Z,126.55
2022-11-27T02:00:26.316Z,121.40
2022-11-27T02:02:53.675Z,125.95
2022-11-27T02:05:25.131Z,138.65
2022-11-27T02:07:54.063Z,136.38
2022-11-27T02:10:23.367Z,137.50
2022-11-27T02:13:03.479Z,132.70
2022-11-27T02:15:57.719Z,126.40
2022-11-27T02:18:43.517Z,128.25
2022-11-27T02:21:28.639Z,108.13
2022-11-27T02:24:15.447Z,125.10
2022-11-27T02:27:03.915Z,113.10
2022-11-27T02:29:34.055Z,114.13
2022-11-27T02:32:28.727Z,117.97
2022-11-27T02:35:04.719Z,117.28
2022-11-27T02:37:43.627Z,127.43
2022-11-27T02:40:22.430Z,123.70
2022-11-27T02:43:18.279Z,124.93
2022-11-27T02:45:50.911Z,129.75
2022-11-27T02:48:22.003Z,134.67
2022-11-27T02:50:52.300Z,162.02
2022-11-27T02:53:25.803Z,147.73
2022-11-27T02:58:28.598Z,145.75
2022-11-27T03:00:57.133Z,154.02
2022-11-27T03:03:32.973Z,142.90
2022-11-27T03:06:09.488Z,163.27
2022-11-27T03:08:46.940Z,180.05
2022-11-27T03:11:15.806Z,199.52
2022-11-27T03:13:50.684Z,141.07
2022-11-27T03:16:40.898Z,192.35
2022-11-27T03:19:43.305Z,196.95
2022-11-27T03:22:11.927Z,186.18
2022-11-27T03:24:39.835Z,161.57
2022-11-27T03:27:07.407Z,240.65
2022-11-27T03:29:48.854Z,306.85
2022-11-27T03:32:17.152Z,237.27
2022-11-27T03:34:44.754Z,218.30
2022-11-27T03:37:12.211Z,293.10
2022-11-27T03:39:39.682Z,364.05
2022-11-27T03:42:19.957Z,261.08
2022-11-27T03:44:47.289Z,256.52
2022-11-27T03:47:39.721Z,236.95
2022-11-27T03:50:42.263Z,497.42
2022-11-27T03:53:20.038Z,206.60
2022-11-27T03:56:14.299Z,342.45
2022-11-27T03:58:51.829Z,412.42
2022-11-27T04:01:23.209Z,589.92
2022-11-27T04:03:50.688Z,321.73
2022-11-27T04:06:18.138Z,239.40
2022-11-27T04:08:47.538Z,375.90
2022-11-27T04:11:15.724Z,444.17
2022-11-27T04:13:43.157Z,381.92
2022-11-27T04:16:11.681Z,458.15
2022-11-27T04:18:40.005Z,471.80
2022-11-27T04:21:07.434Z,187.20
2022-11-27T04:23:37.886Z,371.45
2022-11-27T04:26:05.967Z,206.38
2022-11-27T04:28:33.386Z,250.00
2022-11-27T04:31:00.936Z,177.80
2022-11-27T04:33:28.885Z,381.38
2022-11-27T04:35:56.310Z,293.60
2022-11-27T04:38:23.818Z,479.10
2022-11-27T04:40:53.948Z,181.82
2022-11-27T04:43:23.267Z,183.10
2022-11-27T04:45:50.803Z,375.45
2022-11-27T04:48:18.196Z,450.00
2022-11-27T04:50:45.961Z,405.50
2022-11-27T04:53:13.118Z,363.88
2022-11-27T04:55:40.575Z,285.77
2022-11-27T04:58:07.934Z,493.35
2022-11-27T05:00:34.940Z,271.38
2022-11-27T05:03:02.477Z,374.52
2022-11-27T05:05:30.878Z,288.63
2022-11-27T05:07:59.488Z,300.27
2022-11-27T05:10:26.779Z,266.45
2022-11-27T05:12:53.784Z,266.17
2022-11-27T05:15:21.284Z,417.63
2022-11-27T05:17:48.625Z,335.90
2022-11-27T05:20:17.899Z,294.05
2022-11-27T05:22:46.347Z,159.98
2022-11-27T05:25:13.558Z,277.77
2022-11-27T05:27:40.434Z,159.90
2022-11-27T05:30:09.222Z,143.63
2022-11-27T05:32:37.880Z,93.13
2022-11-27T05:35:05.114Z,343.77
2022-11-27T05:37:33.418Z,357.30
2022-11-27T05:40:00.425Z,204.98
2022-11-27T05:42:27.835Z,279.20
2022-11-27T05:44:58.294Z,229.60
2022-11-27T05:47:25.856Z,192.85
2022-11-27T05:49:53.458Z,196.20
2022-11-27T05:52:20.728Z,292.65
2022-11-27T05:54:49.268Z,207.52
2022-11-27T05:57:16.614Z,129.95
2022-11-27T05:59:44.637Z,136.18
2022-11-27T06:02:18.113Z,87.53
2022-11-27T06:04:47.746Z,82.43
2022-11-27T06:07:16.839Z,74.70
2022-11-27T06:09:44.197Z,80.72
2022-11-27T06:12:13.718Z,75.57
2022-11-27T06:14:41.328Z,76.97
2022-11-27T06:17:11.694Z,75.50
2022-11-27T06:19:39.142Z,74.22
2022-11-27T06:22:07.078Z,67.85
2022-11-27T06:24:36.133Z,71.68
2022-11-27T06:27:03.086Z,70.13
2022-11-27T06:29:31.075Z,76.55
2022-11-27T06:31:58.624Z,77.65
2022-11-27T06:34:26.969Z,76.68
2022-11-27T06:36:53.959Z,75.10
2022-11-27T06:39:21.343Z,74.28
2022-11-27T06:41:50.287Z,76.10
2022-11-27T06:44:17.325Z,81.05
2022-11-27T06:46:45.818Z,96.43
2022-11-27T06:49:13.204Z,82.13
2022-11-27T06:51:40.250Z,79.60
2022-11-27T06:54:07.596Z,86.47
2022-11-27T06:56:34.585Z,86.70
2022-11-27T06:59:02.293Z,97.70
2022-11-27T07:01:31.392Z,110.38
2022-11-27T07:03:59.862Z,98.15
2022-11-27T07:06:27.608Z,92.35
2022-11-27T07:08:55.574Z,89.20
2022-11-27T07:11:28.812Z,89.82
2022-11-27T07:14:02.098Z,114.72
2022-11-27T07:16:32.022Z,152.90
2022-11-27T07:19:03.719Z,109.70
2022-11-27T07:21:31.504Z,141.07
2022-11-27T07:23:58.849Z,94.43
2022-11-27T07:26:28.917Z,98.30
2022-11-27T07:28:57.566Z,102.32
2022-11-27T07:31:29.291Z,108.95
2022-11-27T07:33:57.520Z,83.35
2022-11-27T07:36:30.663Z,87.22
2022-11-27T07:38:58.450Z,78.82
2022-11-27T07:41:30.625Z,73.82
2022-11-27T07:44:00.911Z,92.75
2022-11-27T07:46:30.350Z,79.50
2022-11-27T07:48:58.339Z,91.70
2022-11-27T07:51:28.084Z,88.40
2022-11-27T07:53:55.274Z,84.15
2022-11-27T07:56:23.174Z,84.28
2022-11-27T07:58:58.553Z,86.30
2022-11-27T08:01:26.968Z,101.03
2022-11-27T08:03:54.274Z,90.13
2022-11-27T08:06:24.845Z,89.55
2022-11-27T08:08:53.416Z,91.93
2022-11-27T08:11:30.463Z,90.10
2022-11-27T08:14:07.437Z,89.43
2022-11-27T08:16:36.391Z,90.38
2022-11-27T08:19:03.753Z,87.07
2022-11-27T08:21:33.112Z,88.95
2022-11-27T08:24:00.567Z,93.30
2022-11-27T08:26:29.633Z,85.65
2022-11-27T08:28:57.892Z,91.38
2022-11-27T08:31:25.509Z,86.03
2022-11-27T08:33:53.014Z,93.75
2022-11-27T08:36:20.629Z,100.72
2022-11-27T08:38:47.894Z,95.57
2022-11-27T08:41:15.455Z,101.78
2022-11-27T08:43:42.762Z,104.43
2022-11-27T08:46:10.568Z,103.80
2022-11-27T08:48:37.963Z,91.53
2022-11-27T08:51:14.143Z,101.05
2022-11-27T08:53:47.439Z,113.40
2022-11-27T08:56:18.169Z,94.75
2022-11-27T08:58:47.693Z,94.32
2022-11-27T09:01:18.195Z,83.97
2022-11-27T09:03:47.059Z,82.50
2022-11-27T09:06:17.129Z,76.78
2022-11-27T09:08:45.988Z,69.07
2022-11-27T09:11:15.034Z,66.63
2022-11-27T09:13:42.765Z,62.05
2022-11-27T09:16:16.229Z,63.70
2022-11-27T09:18:50.347Z,68.85
2022-11-27T09:21:20.571Z,66.00
2022-11-27T09:23:52.604Z,56.75
2022-11-27T09:26:20.986Z,54.60
2022-11-27T09:28:48.196Z,59.03
2022-11-27T09:31:16.209Z,54.35
2022-11-27T09:33:44.739Z,52.78
2022-11-27T09:36:19.635Z,49.58
2022-11-27T09:38:47.947Z,49.20
2022-11-27T09:41:51.995Z,50.85
2022-11-27T09:44:40.670Z,60.28
2022-11-27T09:47:41.057Z,54.40
2022-11-27T09:50:30.358Z,61.78
2022-11-27T09:53:00.646Z,66.68
2022-11-27T09:55:35.480Z,55.67
2022-11-27T09:58:07.024Z,50.72
2022-11-27T10:00:34.467Z,53.65
2022-11-27T10:03:02.075Z,59.40
2022-11-27T10:05:49.866Z,56.92
2022-11-27T10:08:27.483Z,47.90
2022-11-27T10:11:07.392Z,51.22
2022-11-27T10:14:21.148Z,49.85
2022-11-27T10:16:54.503Z,48.00
2022-11-27T10:19:51.995Z,47.90
2022-11-27T10:22:27.113Z,44.95
2022-11-27T10:25:02.042Z,46.08
2022-11-27T10:27:29.000Z,47.03
2022-11-27T10:29:58.073Z,45.10
2022-11-27T10:32:54.644Z,43.13
2022-11-27T10:35:31.272Z,40.97
2022-11-27T10:38:17.793Z,39.33
2022-11-27T10:41:48.059Z,37.53
2022-11-27T10:44:27.512Z,38.13
2022-11-27T10:47:01.776Z,38.10
2022-11-27T10:49:29.328Z,34.80
2022-11-27T10:51:56.920Z,36.83
2022-11-27T10:54:32.797Z,32.90
2022-11-27T10:57:20.879Z,33.13
2022-11-27T11:00:05.586Z,37.00
2022-11-27T11:02:41.520Z,36.67
2022-11-27T11:05:37.737Z,41.17
2022-11-27T11:08:21.034Z,41.00
2022-11-27T11:11:00.039Z,41.33
2022-11-27T11:13:33.252Z,40.38
2022-11-27T11:16:05.232Z,41.22
2022-11-27T11:18:35.973Z,48.53
2022-11-27T11:21:07.388Z,34.13
2022-11-27T11:23:39.089Z,35.35
2022-11-27T11:26:24.555Z,40.42
2022-11-27T11:28:55.804Z,40.30
2022-11-27T11:31:33.326Z,43.60
2022-11-27T11:34:15.630Z,45.80
2022-11-27T11:36:58.309Z,44.55
2022-11-27T11:39:29.557Z,58.25
2022-11-27T11:41:57.588Z,52.30
2022-11-27T11:44:33.907Z,54.08
2022-11-27T11:47:03.481Z,57.90
2022-11-27T11:49:36.816Z,48.45
2022-11-27T11:52:14.035Z,50.40
2022-11-27T11:55:03.581Z,40.05
2022-11-27T11:57:58.255Z,50.35
2022-11-27T12:00:48.674Z,43.22
2022-11-27T12:03:49.507Z,43.55
2022-11-27T12:06:19.711Z,47.33
2022-11-27T12:08:58.674Z,47.25
2022-11-27T12:11:29.068Z,46.53
2022-11-27T12:14:41.876Z,48.63
2022-11-27T12:17:24.278Z,67.93
2022-11-27T12:20:45.725Z,62.45
2022-11-27T12:23:42.183Z,52.00
2022-11-27T12:26:12.673Z,46.85
2022-11-27T12:28:59.334Z,47.72
2022-11-27T12:32:08.684Z,54.03
2022-11-27T12:35:04.627Z,52.20
2022-11-27T12:37:38.069Z,46.38
2022-11-27T12:40:25.047Z,45.95
2022-11-27T12:43:07.427Z,50.72
2022-11-27T12:45:45.819Z,55.45
2022-11-27T12:48:26.167Z,58.42
2022-11-27T12:51:03.428Z,55.22
2022-11-27T12:53:37.266Z,48.75
2022-11-27T12:56:21.399Z,47.20
2022-11-27T12:58:55.158Z,48.67
2022-11-27T13:01:55.357Z,47.25
2022-11-27T13:04:52.240Z,52.15
2022-11-27T13:07:46.498Z,49.63
2022-11-27T13:13:07.035Z,51.10
2022-11-27T13:15:50.888Z,53.83
2022-11-27T13:18:31.434Z,54.63
2022-11-27T13:21:01.921Z,54.58
2022-11-27T13:23:34.235Z,52.60
2022-11-27T13:26:17.489Z,51.25
2022-11-27T13:28:52.682Z,51.42
2022-11-27T13:31:24.655Z,48.92
2022-11-27T13:36:45.119Z,55.97
2022-11-27T13:39:28.848Z,50.60
2022-11-27T13:42:04.366Z,53.97
2022-11-27T13:44:31.594Z,53.65
2022-11-27T13:47:06.152Z,48.33
2022-11-27T13:49:36.660Z,47.65
2022-11-27T13:52:15.565Z,57.95
2022-11-27T13:54:53.949Z,56.38
2022-11-27T13:57:21.909Z,60.42
2022-11-27T14:00:13.355Z,61.47
2022-11-27T14:02:52.841Z,64.20
2022-11-27T14:05:34.231Z,59.95
2022-11-27T14:08:01.725Z,60.88
2022-11-27T14:10:32.468Z,61.65
2022-11-27T14:13:05.282Z,65.57
2022-11-27T14:15:37.043Z,61.28
2022-11-27T14:18:22.825Z,61.80
2022-11-27T14:20:56.921Z,62.60
2022-11-27T14:23:50.067Z,66.25
2022-11-27T14:26:22.499Z,68.80
2022-11-27T14:28:55.451Z,71.15
2022-11-27T14:31:31.902Z,75.88
2022-11-27T14:34:23.192Z,74.22
2022-11-27T14:36:52.857Z,80.03
2022-11-27T14:39:35.355Z,76.70
2022-11-27T14:42:28.504Z,77.35
2022-11-27T14:45:12.973Z,89.07
2022-11-27T14:47:45.973Z,87.72
2022-11-27T14:50:21.183Z,81.18
2022-11-27T14:52:56.408Z,79.43
2022-11-27T14:55:25.712Z,74.88
2022-11-27T14:58:02.172Z,82.63
2022-11-27T15:00:30.412Z,84.20
2022-11-27T15:03:11.202Z,85.38
2022-11-27T15:05:39.593Z,83.75
2022-11-27T15:08:10.226Z,75.28
2022-11-27T15:10:45.598Z,78.53
2022-11-27T15:13:26.964Z,84.75
2022-11-27T15:16:02.424Z,96.72
2022-11-27T15:18:34.255Z,84.40
2022-11-27T15:21:09.153Z,92.97
2022-11-27T15:23:36.778Z,85.50
2022-11-27T15:26:19.938Z,91.72
2022-11-27T15:28:53.323Z,95.60
2022-11-27T15:31:33.638Z,103.75
2022-11-27T15:34:05.887Z,92.93
2022-11-27T15:36:41.216Z,116.25
2022-11-27T15:39:17.808Z,116.10
2022-11-27T15:41:56.896Z,118.60
2022-11-27T15:44:26.424Z,111.68
2022-11-27T15:47:01.855Z,112.15
2022-11-27T15:49:30.104Z,105.40
2022-11-27T15:51:58.768Z,103.45
2022-11-27T15:54:26.567Z,104.30
2022-11-27T15:56:53.964Z,114.60
2022-11-27T15:59:21.419Z,123.25
2022-11-27T16:01:50.000Z,124.45
2022-11-27T16:04:19.013Z,137.40
2022-11-27T16:06:47.263Z,132.45
2022-11-27T16:09:15.173Z,136.93
2022-11-27T16:11:43.857Z,135.40
2022-11-27T16:14:12.763Z,148.40
2022-11-27T16:16:40.748Z,166.85
2022-11-27T16:19:08.451Z,167.93
2022-11-27T16:21:36.890Z,174.73
2022-11-27T16:24:06.979Z,169.65
2022-11-27T16:26:35.208Z,189.48
2022-11-27T16:29:02.772Z,189.13
2022-11-27T16:31:32.328Z,189.15
2022-11-27T16:34:06.770Z,190.35
2022-11-27T16:36:34.173Z,169.40
2022-11-27T16:39:02.254Z,155.73
2022-11-27T16:41:29.560Z,150.50
2022-11-27T16:43:57.574Z,150.73
2022-11-27T16:46:30.368Z,148.57
2022-11-27T16:48:59.734Z,151.82
2022-11-27T16:51:41.676Z,151.07
2022-11-27T16:54:12.084Z,146.55
2022-11-27T16:56:40.878Z,148.40
2022-11-27T16:59:11.120Z,153.18
2022-11-27T17:01:39.567Z,157.48
2022-11-27T17:04:09.774Z,158.68
2022-11-27T17:06:39.652Z,156.13
2022-11-27T17:09:08.397Z,145.88
2022-11-27T17:11:37.147Z,157.60
2022-11-27T17:14:08.678Z,156.38
2022-11-27T17:16:43.251Z,155.35
2022-11-27T17:19:15.626Z,155.95
2022-11-27T17:21:43.120Z,145.10
2022-11-27T17:24:16.131Z,149.50
2022-11-27T17:26:45.136Z,152.63
2022-11-27T17:29:15.118Z,151.93
2022-11-27T17:31:44.322Z,141.13
2022-11-27T17:34:14.196Z,137.38
2022-11-27T17:36:43.267Z,145.30
2022-11-27T17:39:12.514Z,131.02
2022-11-27T17:41:41.247Z,132.85
2022-11-27T17:44:09.400Z,128.52
2022-11-27T17:46:37.515Z,125.50
2022-11-27T17:49:06.914Z,131.10
2022-11-27T17:51:36.967Z,133.38
2022-11-27T17:54:06.323Z,130.70
2022-11-27T17:56:35.353Z,136.73
2022-11-27T17:59:03.853Z,146.55
2022-11-27T18:01:32.264Z,137.45
2022-11-27T18:04:01.472Z,137.25
2022-11-27T18:06:29.195Z,130.60
2022-11-27T18:08:58.255Z,134.10
2022-11-27T18:11:30.080Z,132.30
2022-11-27T18:13:59.845Z,125.13
2022-11-27T18:16:34.731Z,127.03
2022-11-27T18:19:08.240Z,120.97
2022-11-27T18:21:37.665Z,123.88
2022-11-27T18:24:23.475Z,119.53
2022-11-27T18:27:08.007Z,118.78
2022-11-27T18:29:42.061Z,119.13
2022-11-27T18:32:11.105Z,121.15
2022-11-27T18:34:38.981Z,119.43
2022-11-27T18:37:06.561Z,119.97
2022-11-27T18:39:35.991Z,120.07
2022-11-27T18:42:05.298Z,111.45
2022-11-27T18:44:44.881Z,109.20
2022-11-27T18:47:16.545Z,104.55
2022-11-27T18:49:46.684Z,97.03
2022-11-27T18:52:15.080Z,102.78
2022-11-27T18:54:43.360Z,102.45
2022-11-27T18:57:11.606Z,102.50
2022-11-27T18:59:40.029Z,103.90
2022-11-27T19:02:11.216Z,104.97
2022-11-27T19:04:40.379Z,98.60
2022-11-27T19:07:08.557Z,98.25
2022-11-27T19:09:36.432Z,94.10
2022-11-27T19:12:06.700Z,100.95
2022-11-27T19:14:35.004Z,95.25
2022-11-27T19:17:03.932Z,105.32
2022-11-27T19:22:23.676Z,98.90
2022-11-27T19:24:51.557Z,92.60
2022-11-27T19:27:19.372Z,97.65
2022-11-27T19:29:48.319Z,107.85
2022-11-27T19:32:16.439Z,101.70
2022-11-27T19:34:44.516Z,90.07
2022-11-27T19:37:12.315Z,94.13
2022-11-27T19:39:40.214Z,92.68
2022-11-27T19:42:09.298Z,87.22
2022-11-27T19:44:37.233Z,91.03
2022-11-27T19:47:05.169Z,86.90
2022-11-27T19:49:33.377Z,91.65
2022-11-27T19:52:03.416Z,93.80
2022-11-27T19:54:31.115Z,85.63
2022-11-27T19:56:59.240Z,84.57
2022-11-27T19:59:27.594Z,92.60
2022-11-27T20:01:55.859Z,87.15
2022-11-27T20:04:23.640Z,89.32
2022-11-27T20:06:53.436Z,95.22
2022-11-27T20:09:23.091Z,95.88
2022-11-27T20:11:57.411Z,89.57
2022-11-27T20:14:25.252Z,89.65
2022-11-27T20:16:53.146Z,84.82
2022-11-27T20:19:21.253Z,96.50
2022-11-27T20:21:49.139Z,97.63
2022-11-27T20:24:16.999Z,96.35
2022-11-27T20:26:45.015Z,95.00
2022-11-27T20:29:14.070Z,98.68
2022-11-27T20:31:48.555Z,101.07
2022-11-27T20:34:21.428Z,97.97
2022-11-27T20:36:58.101Z,103.75
2022-11-27T20:39:25.961Z,105.07
2022-11-27T20:41:59.956Z,105.47
2022-11-27T20:44:29.429Z,98.10
2022-11-27T20:46:57.618Z,104.40
2022-11-27T20:49:27.396Z,106.82
2022-11-27T20:51:56.045Z,111.00
2022-11-27T20:54:23.711Z,112.00
2022-11-27T20:56:54.370Z,105.00
2022-11-27T20:59:23.586Z,109.85
2022-11-27T21:01:51.423Z,110.72
2022-11-27T21:04:25.084Z,107.13
2022-11-27T21:06:52.576Z,109.45
2022-11-27T21:09:21.774Z,113.38
2022-11-27T21:11:51.661Z,107.57
2022-11-27T21:14:19.595Z,105.32
2022-11-27T21:16:49.163Z,110.07
2022-11-27T21:19:20.113Z,117.20
2022-11-27T21:21:52.254Z,111.43
2022-11-27T21:24:22.250Z,117.60
2022-11-27T21:26:52.024Z,115.68
2022-11-27T21:29:25.700Z,114.72
2022-11-27T21:31:53.830Z,115.20
2022-11-27T21:34:24.321Z,116.50
2022-11-27T21:36:57.601Z,121.05
2022-11-27T21:39:26.090Z,122.47
2022-11-27T21:41:55.646Z,112.75
2022-11-27T21:44:24.846Z,108.30
2022-11-27T21:46:53.151Z,116.25
2022-11-27T21:49:21.576Z,116.20
2022-11-27T21:51:53.810Z,115.45
2022-11-27T21:54:21.557Z,114.07
2022-11-27T21:56:53.097Z,115.30
2022-11-27T21:59:20.581Z,111.93
2022-11-27T22:01:47.797Z,118.63
2022-11-27T22:04:15.244Z,112.28
2022-11-27T22:06:43.781Z,112.80
2022-11-27T22:09:15.277Z,120.85
2022-11-27T22:11:52.554Z,118.63
2022-11-27T22:14:20.787Z,119.43
2022-11-27T22:16:48.349Z,121.10
2022-11-27T22:19:16.569Z,119.85
2022-11-27T22:21:51.281Z,116.63
2022-11-27T22:24:20.784Z,116.30
2022-11-27T22:26:48.961Z,119.60
2022-11-27T22:29:16.319Z,128.65
2022-11-27T22:31:43.713Z,118.38
2022-11-27T22:34:11.205Z,120.53
2022-11-27T22:36:38.732Z,121.45
2022-11-27T22:39:08.624Z,112.97
2022-11-27T22:41:37.206Z,117.95
2022-11-27T22:44:15.562Z,117.78
2022-11-27T22:46:44.967Z,119.55
2022-11-27T22:49:15.770Z,112.72
2022-11-27T22:51:48.953Z,111.70
2022-11-27T22:54:17.432Z,114.30
2022-11-27T22:56:46.759Z,116.03
2022-11-27T23:02:01.883Z,119.80
2022-11-27T23:04:29.301Z,120.32
2022-11-27T23:06:56.776Z,116.43
2022-11-27T23:09:24.840Z,116.13
2022-11-27T23:11:52.383Z,117.63
2022-11-27T23:14:19.616Z,117.38
2022-11-27T23:16:46.704Z,119.65
2022-11-27T23:19:18.056Z,122.38
2022-11-27T23:21:45.146Z,119.40
2022-11-27T23:24:15.442Z,120.07
2022-11-27T23:26:46.020Z,112.97
2022-11-27T23:29:14.181Z,132.68
2022-11-27T23:31:42.132Z,140.27
2022-11-27T23:34:13.399Z,130.90
2022-11-27T23:36:40.806Z,122.35
2022-11-27T23:39:09.593Z,123.97
2022-11-27T23:41:37.064Z,124.97
2022-11-27T23:44:04.587Z,126.78
2022-11-27T23:46:32.204Z,127.45
2022-11-27T23:49:00.953Z,126.75
2022-11-27T23:51:32.098Z,130.90
2022-11-27T23:54:00.654Z,125.93
2022-11-27T23:56:30.910Z,128.05
2022-11-27T23:59:00.101Z,133.20
